sensor_id;sensor_type;location;lat;lon;timestamp;P1;durP1;ratioP1;P2;durP2;ratioP2
54983;SDS011;40884;53.562;9.940;2023-03-23T00:00:08;6.77;;;5.70;;
54983;SDS011;40884;53.562;9.940;2023-03-23T00:01:11;6.13;;;5.53;;
54983;SDS011;40884;53.562;9.940;2023-03-23T00:02:11;9.47;;;6.60;;
54983;SDS011;40884;53.562;9.940;2023-03-23T00:03:11;7.07;;;5.47;;
54983;SDS011;40884;53.562;9.940;2023-03-23T00:04:12;8.20;;;6.00;;
54983;SDS011;40884;53.562;9.940;2023-03-23T00:05:12;7.03;;;6.33;;
54983;SDS011;40884;53.562;9.940;2023-03-23T00:06:12;8.03;;;5.63;;
54983;SDS011;40884;53.562;9.940;2023-03-23T00:07:12;8.07;;;6.73;;
54983;SDS011;40884;53.562;9.940;2023-03-23T00:08:12;12.77;;;6.50;;
54983;SDS011;40884;53.562;9.940;2023-03-23T00:09:18;7.53;;;6.60;;
54983;SDS011;40884;53.562;9.940;2023-03-23T00:10:19;7.43;;;5.97;;
54983;SDS011;40884;53.562;9.940;2023-03-23T00:11:19;7.27;;;5.80;;
54983;SDS011;40884;53.562;9.940;2023-03-23T00:12:20;6.70;;;6.00;;
54983;SDS011;40884;53.562;9.940;2023-03-23T00:13:21;7.43;;;6.53;;
54983;SDS011;40884;53.562;9.940;2023-03-23T00:14:21;7.60;;;6.77;;
54983;SDS011;40884;53.562;9.940;2023-03-23T00:15:21;8.13;;;7.00;;
54983;SDS011;40884;53.562;9.940;2023-03-23T00:16:22;11.03;;;7.80;;
54983;SDS011;40884;53.562;9.940;2023-03-23T00:17:23;8.53;;;6.80;;
54983;SDS011;40884;53.562;9.940;2023-03-23T00:18:23;6.77;;;5.73;;
54983;SDS011;40884;53.562;9.940;2023-03-23T00:19:23;9.33;;;6.93;;
54983;SDS011;40884;53.562;9.940;2023-03-23T00:20:23;7.30;;;6.60;;
54983;SDS011;40884;53.562;9.940;2023-03-23T00:21:28;7.77;;;7.03;;
54983;SDS011;40884;53.562;9.940;2023-03-23T00:22:28;7.93;;;6.97;;
54983;SDS011;40884;53.562;9.940;2023-03-23T00:23:28;7.73;;;7.03;;
54983;SDS011;40884;53.562;9.940;2023-03-23T00:24:28;7.50;;;6.37;;
54983;SDS011;40884;53.562;9.940;2023-03-23T00:25:28;7.97;;;7.17;;
54983;SDS011;40884;53.562;9.940;2023-03-23T00:26:29;7.77;;;6.70;;
54983;SDS011;40884;53.562;9.940;2023-03-23T00:27:29;7.90;;;7.00;;
54983;SDS011;40884;53.562;9.940;2023-03-23T00:28:29;9.20;;;6.57;;
54983;SDS011;40884;53.562;9.940;2023-03-23T00:29:29;8.40;;;7.50;;
54983;SDS011;40884;53.562;9.940;2023-03-23T00:30:29;8.50;;;5.90;;
54983;SDS011;40884;53.562;9.940;2023-03-23T00:31:30;8.33;;;7.17;;
54983;SDS011;40884;53.562;9.940;2023-03-23T00:32:30;9.37;;;8.47;;
54983;SDS011;40884;53.562;9.940;2023-03-23T00:33:31;7.03;;;6.33;;
54983;SDS011;40884;53.562;9.940;2023-03-23T00:34:32;9.90;;;8.93;;
54983;SDS011;40884;53.562;9.940;2023-03-23T00:35:32;9.07;;;8.17;;
54983;SDS011;40884;53.562;9.940;2023-03-23T00:36:33;12.87;;;9.50;;
54983;SDS011;40884;53.562;9.940;2023-03-23T00:37:33;7.60;;;6.60;;
54983;SDS011;40884;53.562;9.940;2023-03-23T00:38:34;7.73;;;6.67;;
54983;SDS011;40884;53.562;9.940;2023-03-23T00:39:34;10.63;;;8.30;;
54983;SDS011;40884;53.562;9.940;2023-03-23T00:40:34;10.20;;;9.20;;
54983;SDS011;40884;53.562;9.940;2023-03-23T00:41:34;8.03;;;6.93;;
54983;SDS011;40884;53.562;9.940;2023-03-23T00:42:34;10.77;;;9.17;;
54983;SDS011;40884;53.562;9.940;2023-03-23T00:43:35;10.77;;;9.67;;
54983;SDS011;40884;53.562;9.940;2023-03-23T00:44:35;10.93;;;9.80;;
54983;SDS011;40884;53.562;9.940;2023-03-23T00:45:35;10.93;;;9.73;;
54983;SDS011;40884;53.562;9.940;2023-03-23T00:46:35;10.50;;;9.50;;
54983;SDS011;40884;53.562;9.940;2023-03-23T00:47:36;9.17;;;6.23;;
54983;SDS011;40884;53.562;9.940;2023-03-23T00:48:37;9.63;;;8.63;;
54983;SDS011;40884;53.562;9.940;2023-03-23T00:49:38;11.00;;;10.00;;
54983;SDS011;40884;53.562;9.940;2023-03-23T00:50:39;8.90;;;8.00;;
54983;SDS011;40884;53.562;9.940;2023-03-23T00:51:42;10.70;;;9.53;;
54983;SDS011;40884;53.562;9.940;2023-03-23T00:52:43;12.90;;;9.50;;
54983;SDS011;40884;53.562;9.940;2023-03-23T00:53:44;6.90;;;6.20;;
54983;SDS011;40884;53.562;9.940;2023-03-23T00:54:44;7.43;;;6.83;;
54983;SDS011;40884;53.562;9.940;2023-03-23T00:55:44;6.97;;;6.37;;
54983;SDS011;40884;53.562;9.940;2023-03-23T00:56:45;8.97;;;8.17;;
54983;SDS011;40884;53.562;9.940;2023-03-23T00:57:45;10.10;;;9.20;;
54983;SDS011;40884;53.562;9.940;2023-03-23T00:58:45;9.97;;;8.97;;
54983;SDS011;40884;53.562;9.940;2023-03-23T00:59:45;8.17;;;7.47;;
54983;SDS011;40884;53.562;9.940;2023-03-23T01:00:45;8.73;;;7.93;;
54983;SDS011;40884;53.562;9.940;2023-03-23T01:01:47;9.20;;;8.30;;
54983;SDS011;40884;53.562;9.940;2023-03-23T01:02:47;8.40;;;7.57;;
54983;SDS011;40884;53.562;9.940;2023-03-23T01:03:47;8.50;;;7.70;;
54983;SDS011;40884;53.562;9.940;2023-03-23T01:04:48;8.43;;;7.30;;
54983;SDS011;40884;53.562;9.940;2023-03-23T01:05:48;7.87;;;7.13;;
54983;SDS011;40884;53.562;9.940;2023-03-23T01:06:48;7.70;;;7.00;;
54983;SDS011;40884;53.562;9.940;2023-03-23T01:07:49;7.00;;;6.33;;
54983;SDS011;40884;53.562;9.940;2023-03-23T01:08:49;8.70;;;7.90;;
54983;SDS011;40884;53.562;9.940;2023-03-23T01:09:49;8.73;;;7.83;;
54983;SDS011;40884;53.562;9.940;2023-03-23T01:10:49;7.87;;;7.17;;
54983;SDS011;40884;53.562;9.940;2023-03-23T01:11:50;8.70;;;7.57;;
54983;SDS011;40884;53.562;9.940;2023-03-23T01:12:50;9.57;;;8.57;;
54983;SDS011;40884;53.562;9.940;2023-03-23T01:13:51;8.60;;;7.50;;
54983;SDS011;40884;53.562;9.940;2023-03-23T01:14:53;8.43;;;7.70;;
54983;SDS011;40884;53.562;9.940;2023-03-23T01:15:53;8.17;;;7.37;;
54983;SDS011;40884;53.562;9.940;2023-03-23T01:16:54;9.27;;;8.03;;
54983;SDS011;40884;53.562;9.940;2023-03-23T01:17:54;8.97;;;7.40;;
54983;SDS011;40884;53.562;9.940;2023-03-23T01:18:54;8.77;;;7.87;;
54983;SDS011;40884;53.562;9.940;2023-03-23T01:19:54;9.43;;;8.50;;
54983;SDS011;40884;53.562;9.940;2023-03-23T01:20:55;9.03;;;8.13;;
54983;SDS011;40884;53.562;9.940;2023-03-23T01:21:55;9.17;;;8.27;;
54983;SDS011;40884;53.562;9.940;2023-03-23T01:22:55;9.03;;;8.23;;
54983;SDS011;40884;53.562;9.940;2023-03-23T01:23:55;8.90;;;8.10;;
54983;SDS011;40884;53.562;9.940;2023-03-23T01:24:55;9.13;;;8.10;;
54983;SDS011;40884;53.562;9.940;2023-03-23T01:25:56;10.37;;;9.37;;
54983;SDS011;40884;53.562;9.940;2023-03-23T01:26:56;8.80;;;8.00;;
54983;SDS011;40884;53.562;9.940;2023-03-23T01:27:56;8.87;;;7.97;;
54983;SDS011;40884;53.562;9.940;2023-03-23T01:28:56;9.47;;;8.47;;
54983;SDS011;40884;53.562;9.940;2023-03-23T01:29:56;9.70;;;8.80;;
54983;SDS011;40884;53.562;9.940;2023-03-23T01:31:03;11.03;;;9.20;;
54983;SDS011;40884;53.562;9.940;2023-03-23T01:32:04;10.60;;;9.33;;
54983;SDS011;40884;53.562;9.940;2023-03-23T01:33:04;10.37;;;9.27;;
54983;SDS011;40884;53.562;9.940;2023-03-23T01:34:04;10.83;;;9.73;;
54983;SDS011;40884;53.562;9.940;2023-03-23T01:35:05;11.33;;;10.30;;
54983;SDS011;40884;53.562;9.940;2023-03-23T01:36:06;11.43;;;10.30;;
54983;SDS011;40884;53.562;9.940;2023-03-23T01:37:07;11.60;;;10.40;;
54983;SDS011;40884;53.562;9.940;2023-03-23T01:38:07;11.23;;;10.23;;
54983;SDS011;40884;53.562;9.940;2023-03-23T01:39:07;9.57;;;8.60;;
54983;SDS011;40884;53.562;9.940;2023-03-23T01:40:08;9.37;;;8.47;;
54983;SDS011;40884;53.562;9.940;2023-03-23T01:41:09;10.93;;;9.93;;
54983;SDS011;40884;53.562;9.940;2023-03-23T01:42:09;8.83;;;7.67;;
54983;SDS011;40884;53.562;9.940;2023-03-23T01:43:14;10.57;;;9.57;;
54983;SDS011;40884;53.562;9.940;2023-03-23T01:45:27;11.77;;;10.67;;
54983;SDS011;40884;53.562;9.940;2023-03-23T01:46:28;11.33;;;10.23;;
54983;SDS011;40884;53.562;9.940;2023-03-23T01:47:28;11.70;;;10.50;;
54983;SDS011;40884;53.562;9.940;2023-03-23T01:48:30;10.33;;;9.33;;
54983;SDS011;40884;53.562;9.940;2023-03-23T01:49:33;12.13;;;10.40;;
54983;SDS011;40884;53.562;9.940;2023-03-23T01:50:36;10.90;;;9.60;;
54983;SDS011;40884;53.562;9.940;2023-03-23T01:51:39;11.23;;;9.27;;
54983;SDS011;40884;53.562;9.940;2023-03-23T01:52:40;12.00;;;10.60;;
54983;SDS011;40884;53.562;9.940;2023-03-23T01:53:48;11.43;;;10.23;;
54983;SDS011;40884;53.562;9.940;2023-03-23T01:54:51;9.63;;;8.53;;
54983;SDS011;40884;53.562;9.940;2023-03-23T01:55:52;14.23;;;10.00;;
54983;SDS011;40884;53.562;9.940;2023-03-23T01:56:54;11.97;;;10.77;;
54983;SDS011;40884;53.562;9.940;2023-03-23T01:57:55;11.43;;;10.33;;
54983;SDS011;40884;53.562;9.940;2023-03-23T01:58:56;10.00;;;9.00;;
54983;SDS011;40884;53.562;9.940;2023-03-23T01:59:59;10.73;;;9.73;;
54983;SDS011;40884;53.562;9.940;2023-03-23T02:01:14;10.83;;;9.83;;
54983;SDS011;40884;53.562;9.940;2023-03-23T02:02:15;9.10;;;7.50;;
54983;SDS011;40884;53.562;9.940;2023-03-23T02:03:16;8.60;;;7.80;;
54983;SDS011;40884;53.562;9.940;2023-03-23T02:04:16;9.40;;;8.27;;
54983;SDS011;40884;53.562;9.940;2023-03-23T02:05:19;8.47;;;7.67;;
54983;SDS011;40884;53.562;9.940;2023-03-23T02:06:21;10.07;;;9.17;;
54983;SDS011;40884;53.562;9.940;2023-03-23T02:07:36;10.90;;;9.80;;
54983;SDS011;40884;53.562;9.940;2023-03-23T02:08:38;10.70;;;9.60;;
54983;SDS011;40884;53.562;9.940;2023-03-23T02:09:40;13.37;;;10.37;;
54983;SDS011;40884;53.562;9.940;2023-03-23T02:10:40;6.43;;;5.80;;
54983;SDS011;40884;53.562;9.940;2023-03-23T02:11:41;8.73;;;7.97;;
54983;SDS011;40884;53.562;9.940;2023-03-23T02:12:41;10.07;;;9.07;;
54983;SDS011;40884;53.562;9.940;2023-03-23T02:13:43;9.97;;;8.37;;
54983;SDS011;40884;53.562;9.940;2023-03-23T02:14:44;9.07;;;8.17;;
54983;SDS011;40884;53.562;9.940;2023-03-23T02:15:45;10.37;;;8.87;;
54983;SDS011;40884;53.562;9.940;2023-03-23T02:17:50;10.63;;;9.20;;
54983;SDS011;40884;53.562;9.940;2023-03-23T02:18:57;11.27;;;9.43;;
54983;SDS011;40884;53.562;9.940;2023-03-23T02:20:18;11.27;;;10.07;;
54983;SDS011;40884;53.562;9.940;2023-03-23T02:22:31;10.80;;;9.70;;
54983;SDS011;40884;53.562;9.940;2023-03-23T02:24:53;11.07;;;9.63;;
54983;SDS011;40884;53.562;9.940;2023-03-23T02:25:59;9.77;;;8.87;;
54983;SDS011;40884;53.562;9.940;2023-03-23T02:28:31;10.87;;;9.67;;
54983;SDS011;40884;53.562;9.940;2023-03-23T02:29:38;11.50;;;10.30;;
54983;SDS011;40884;53.562;9.940;2023-03-23T02:30:52;9.53;;;8.60;;
54983;SDS011;40884;53.562;9.940;2023-03-23T02:32:04;8.60;;;7.37;;
54983;SDS011;40884;53.562;9.940;2023-03-23T02:34:29;11.00;;;9.67;;
54983;SDS011;40884;53.562;9.940;2023-03-23T02:35:30;10.07;;;8.17;;
54983;SDS011;40884;53.562;9.940;2023-03-23T02:37:40;9.83;;;8.83;;
54983;SDS011;40884;53.562;9.940;2023-03-23T02:39:45;8.83;;;7.93;;
54983;SDS011;40884;53.562;9.940;2023-03-23T02:40:48;9.47;;;8.57;;
54983;SDS011;40884;53.562;9.940;2023-03-23T02:42:06;8.97;;;8.10;;
54983;SDS011;40884;53.562;9.940;2023-03-23T02:43:07;9.23;;;8.40;;
54983;SDS011;40884;53.562;9.940;2023-03-23T02:44:08;9.60;;;8.53;;
54983;SDS011;40884;53.562;9.940;2023-03-23T02:45:11;10.00;;;8.77;;
54983;SDS011;40884;53.562;9.940;2023-03-23T02:46:12;7.70;;;6.30;;
54983;SDS011;40884;53.562;9.940;2023-03-23T02:47:16;9.40;;;8.50;;
54983;SDS011;40884;53.562;9.940;2023-03-23T02:48:17;9.47;;;8.57;;
54983;SDS011;40884;53.562;9.940;2023-03-23T02:49:20;9.33;;;8.43;;
54983;SDS011;40884;53.562;9.940;2023-03-23T02:50:22;9.13;;;8.33;;
54983;SDS011;40884;53.562;9.940;2023-03-23T02:51:24;6.80;;;6.20;;
54983;SDS011;40884;53.562;9.940;2023-03-23T02:52:25;9.73;;;8.00;;
54983;SDS011;40884;53.562;9.940;2023-03-23T02:53:27;9.43;;;8.50;;
54983;SDS011;40884;53.562;9.940;2023-03-23T02:54:28;8.60;;;7.80;;
54983;SDS011;40884;53.562;9.940;2023-03-23T02:55:29;6.60;;;6.00;;
54983;SDS011;40884;53.562;9.940;2023-03-23T02:56:34;8.77;;;7.97;;
54983;SDS011;40884;53.562;9.940;2023-03-23T02:57:37;8.80;;;8.00;;
54983;SDS011;40884;53.562;9.940;2023-03-23T02:58:37;10.07;;;9.03;;
54983;SDS011;40884;53.562;9.940;2023-03-23T02:59:38;9.23;;;8.37;;
54983;SDS011;40884;53.562;9.940;2023-03-23T03:00:38;10.37;;;9.10;;
54983;SDS011;40884;53.562;9.940;2023-03-23T03:02:40;9.00;;;8.20;;
54983;SDS011;40884;53.562;9.940;2023-03-23T03:03:41;9.47;;;8.57;;
54983;SDS011;40884;53.562;9.940;2023-03-23T03:04:41;7.83;;;7.07;;
54983;SDS011;40884;53.562;9.940;2023-03-23T03:08:45;9.00;;;8.20;;
54983;SDS011;40884;53.562;9.940;2023-03-23T03:09:50;10.30;;;7.87;;
54983;SDS011;40884;53.562;9.940;2023-03-23T03:10:54;9.10;;;8.17;;
54983;SDS011;40884;53.562;9.940;2023-03-23T03:11:56;9.33;;;8.40;;
54983;SDS011;40884;53.562;9.940;2023-03-23T03:13:11;7.50;;;6.80;;
54983;SDS011;40884;53.562;9.940;2023-03-23T03:14:15;9.00;;;8.17;;
54983;SDS011;40884;53.562;9.940;2023-03-23T03:15:22;8.20;;;7.43;;
54983;SDS011;40884;53.562;9.940;2023-03-23T03:16:40;9.50;;;8.57;;
54983;SDS011;40884;53.562;9.940;2023-03-23T03:17:45;7.23;;;6.53;;
54983;SDS011;40884;53.562;9.940;2023-03-23T03:19:48;8.63;;;7.13;;
54983;SDS011;40884;53.562;9.940;2023-03-23T03:20:53;7.90;;;7.13;;
54983;SDS011;40884;53.562;9.940;2023-03-23T03:21:56;8.20;;;7.40;;
54983;SDS011;40884;53.562;9.940;2023-03-23T03:23:07;7.93;;;6.37;;
54983;SDS011;40884;53.562;9.940;2023-03-23T03:24:08;7.80;;;6.60;;
54983;SDS011;40884;53.562;9.940;2023-03-23T03:25:11;9.83;;;8.37;;
54983;SDS011;40884;53.562;9.940;2023-03-23T03:26:12;9.10;;;7.47;;
54983;SDS011;40884;53.562;9.940;2023-03-23T03:27:21;6.87;;;6.27;;
54983;SDS011;40884;53.562;9.940;2023-03-23T03:28:30;6.70;;;6.10;;
54983;SDS011;40884;53.562;9.940;2023-03-23T03:29:35;7.53;;;6.63;;
54983;SDS011;40884;53.562;9.940;2023-03-23T03:30:36;9.87;;;8.83;;
54983;SDS011;40884;53.562;9.940;2023-03-23T03:31:38;9.87;;;8.87;;
54983;SDS011;40884;53.562;9.940;2023-03-23T03:32:41;10.57;;;9.47;;
54983;SDS011;40884;53.562;9.940;2023-03-23T03:33:43;8.47;;;7.33;;
54983;SDS011;40884;53.562;9.940;2023-03-23T03:34:43;8.97;;;8.00;;
54983;SDS011;40884;53.562;9.940;2023-03-23T03:35:43;6.93;;;6.27;;
54983;SDS011;40884;53.562;9.940;2023-03-23T03:36:45;10.07;;;8.43;;
54983;SDS011;40884;53.562;9.940;2023-03-23T03:37:45;7.17;;;6.37;;
54983;SDS011;40884;53.562;9.940;2023-03-23T03:38:47;7.57;;;6.43;;
54983;SDS011;40884;53.562;9.940;2023-03-23T03:39:48;7.60;;;6.90;;
54983;SDS011;40884;53.562;9.940;2023-03-23T03:40:49;7.57;;;6.83;;
54983;SDS011;40884;53.562;9.940;2023-03-23T03:41:51;10.00;;;9.10;;
54983;SDS011;40884;53.562;9.940;2023-03-23T03:42:51;8.57;;;7.07;;
54983;SDS011;40884;53.562;9.940;2023-03-23T03:43:51;9.93;;;8.93;;
54983;SDS011;40884;53.562;9.940;2023-03-23T03:44:51;7.90;;;7.20;;
54983;SDS011;40884;53.562;9.940;2023-03-23T03:45:51;9.37;;;8.37;;
54983;SDS011;40884;53.562;9.940;2023-03-23T03:46:52;10.97;;;8.47;;
54983;SDS011;40884;53.562;9.940;2023-03-23T03:47:52;5.90;;;5.33;;
54983;SDS011;40884;53.562;9.940;2023-03-23T03:48:52;7.73;;;6.87;;
54983;SDS011;40884;53.562;9.940;2023-03-23T03:49:54;10.20;;;7.77;;
54983;SDS011;40884;53.562;9.940;2023-03-23T03:50:55;9.67;;;8.20;;
54983;SDS011;40884;53.562;9.940;2023-03-23T03:51:55;9.60;;;8.60;;
54983;SDS011;40884;53.562;9.940;2023-03-23T03:53:00;9.77;;;8.80;;
54983;SDS011;40884;53.562;9.940;2023-03-23T03:54:00;9.27;;;8.37;;
54983;SDS011;40884;53.562;9.940;2023-03-23T03:55:01;9.33;;;8.43;;
54983;SDS011;40884;53.562;9.940;2023-03-23T03:56:02;9.20;;;8.30;;
54983;SDS011;40884;53.562;9.940;2023-03-23T03:57:10;8.17;;;7.30;;
54983;SDS011;40884;53.562;9.940;2023-03-23T03:58:29;12.23;;;8.87;;
54983;SDS011;40884;53.562;9.940;2023-03-23T03:59:52;9.40;;;8.40;;
54983;SDS011;40884;53.562;9.940;2023-03-23T04:01:12;7.20;;;6.60;;
54983;SDS011;40884;53.562;9.940;2023-03-23T04:02:13;5.93;;;5.33;;
54983;SDS011;40884;53.562;9.940;2023-03-23T04:03:13;7.03;;;6.07;;
54983;SDS011;40884;53.562;9.940;2023-03-23T04:04:36;9.37;;;8.43;;
54983;SDS011;40884;53.562;9.940;2023-03-23T04:05:36;9.33;;;7.67;;
54983;SDS011;40884;53.562;9.940;2023-03-23T04:06:36;8.97;;;8.13;;
54983;SDS011;40884;53.562;9.940;2023-03-23T04:07:36;10.17;;;8.30;;
54983;SDS011;40884;53.562;9.940;2023-03-23T04:08:37;9.47;;;8.13;;
54983;SDS011;40884;53.562;9.940;2023-03-23T04:09:38;8.43;;;7.63;;
54983;SDS011;40884;53.562;9.940;2023-03-23T04:10:38;9.27;;;8.30;;
54983;SDS011;40884;53.562;9.940;2023-03-23T04:11:38;7.63;;;6.83;;
54983;SDS011;40884;53.562;9.940;2023-03-23T04:13:07;8.87;;;8.07;;
54983;SDS011;40884;53.562;9.940;2023-03-23T04:14:37;8.23;;;6.90;;
54983;SDS011;40884;53.562;9.940;2023-03-23T04:15:37;9.27;;;8.00;;
54983;SDS011;40884;53.562;9.940;2023-03-23T04:16:37;11.60;;;8.63;;
54983;SDS011;40884;53.562;9.940;2023-03-23T04:17:37;8.60;;;7.80;;
54983;SDS011;40884;53.562;9.940;2023-03-23T04:18:38;8.43;;;7.70;;
54983;SDS011;40884;53.562;9.940;2023-03-23T04:19:38;7.17;;;6.47;;
54983;SDS011;40884;53.562;9.940;2023-03-23T04:20:39;7.80;;;7.00;;
54983;SDS011;40884;53.562;9.940;2023-03-23T04:21:39;8.93;;;7.37;;
54983;SDS011;40884;53.562;9.940;2023-03-23T04:22:39;7.40;;;6.70;;
54983;SDS011;40884;53.562;9.940;2023-03-23T04:23:39;8.57;;;7.57;;
54983;SDS011;40884;53.562;9.940;2023-03-23T04:24:41;9.77;;;8.13;;
54983;SDS011;40884;53.562;9.940;2023-03-23T04:25:45;9.87;;;8.17;;
54983;SDS011;40884;53.562;9.940;2023-03-23T04:26:45;6.70;;;6.13;;
54983;SDS011;40884;53.562;9.940;2023-03-23T04:27:54;7.83;;;7.03;;
54983;SDS011;40884;53.562;9.940;2023-03-23T04:28:59;8.37;;;7.47;;
54983;SDS011;40884;53.562;9.940;2023-03-23T04:30:11;9.60;;;8.23;;
54983;SDS011;40884;53.562;9.940;2023-03-23T04:31:19;7.00;;;5.30;;
54983;SDS011;40884;53.562;9.940;2023-03-23T04:32:25;8.67;;;6.87;;
54983;SDS011;40884;53.562;9.940;2023-03-23T04:33:28;7.63;;;6.83;;
54983;SDS011;40884;53.562;9.940;2023-03-23T04:34:28;6.43;;;5.83;;
54983;SDS011;40884;53.562;9.940;2023-03-23T04:35:29;7.33;;;5.90;;
54983;SDS011;40884;53.562;9.940;2023-03-23T04:36:44;6.10;;;5.50;;
54983;SDS011;40884;53.562;9.940;2023-03-23T04:37:49;7.83;;;6.50;;
54983;SDS011;40884;53.562;9.940;2023-03-23T04:38:52;7.90;;;7.10;;
54983;SDS011;40884;53.562;9.940;2023-03-23T04:39:55;8.87;;;7.93;;
54983;SDS011;40884;53.562;9.940;2023-03-23T04:40:56;9.60;;;8.70;;
54983;SDS011;40884;53.562;9.940;2023-03-23T04:42:19;9.40;;;8.43;;
54983;SDS011;40884;53.562;9.940;2023-03-23T04:43:45;8.90;;;8.10;;
54983;SDS011;40884;53.562;9.940;2023-03-23T04:45:16;7.43;;;6.70;;
54983;SDS011;40884;53.562;9.940;2023-03-23T04:46:16;7.33;;;6.63;;
54983;SDS011;40884;53.562;9.940;2023-03-23T04:47:16;8.37;;;7.37;;
54983;SDS011;40884;53.562;9.940;2023-03-23T04:48:26;9.37;;;8.37;;
54983;SDS011;40884;53.562;9.940;2023-03-23T04:49:39;9.30;;;8.33;;
54983;SDS011;40884;53.562;9.940;2023-03-23T04:50:47;8.53;;;7.67;;
54983;SDS011;40884;53.562;9.940;2023-03-23T04:51:55;7.50;;;6.80;;
54983;SDS011;40884;53.562;9.940;2023-03-23T04:53:09;7.00;;;6.30;;
54983;SDS011;40884;53.562;9.940;2023-03-23T04:54:09;7.60;;;6.90;;
54983;SDS011;40884;53.562;9.940;2023-03-23T04:55:11;9.03;;;8.13;;
54983;SDS011;40884;53.562;9.940;2023-03-23T04:56:14;7.50;;;6.80;;
54983;SDS011;40884;53.562;9.940;2023-03-23T04:57:18;8.03;;;7.23;;
54983;SDS011;40884;53.562;9.940;2023-03-23T04:58:31;7.03;;;6.33;;
54983;SDS011;40884;53.562;9.940;2023-03-23T04:59:51;11.33;;;8.10;;
54983;SDS011;40884;53.562;9.940;2023-03-23T05:00:57;8.70;;;7.90;;
54983;SDS011;40884;53.562;9.940;2023-03-23T05:01:58;9.00;;;8.10;;
54983;SDS011;40884;53.562;9.940;2023-03-23T05:03:00;9.57;;;8.27;;
54983;SDS011;40884;53.562;9.940;2023-03-23T05:04:01;8.00;;;7.03;;
54983;SDS011;40884;53.562;9.940;2023-03-23T05:05:02;9.30;;;7.00;;
54983;SDS011;40884;53.562;9.940;2023-03-23T05:06:03;8.60;;;7.70;;
54983;SDS011;40884;53.562;9.940;2023-03-23T05:07:04;9.47;;;8.57;;
54983;SDS011;40884;53.562;9.940;2023-03-23T05:08:07;8.73;;;7.33;;
54983;SDS011;40884;53.562;9.940;2023-03-23T05:09:11;9.17;;;7.90;;
54983;SDS011;40884;53.562;9.940;2023-03-23T05:10:11;10.20;;;7.70;;
54983;SDS011;40884;53.562;9.940;2023-03-23T05:11:12;8.57;;;6.97;;
54983;SDS011;40884;53.562;9.940;2023-03-23T05:12:15;8.37;;;7.27;;
54983;SDS011;40884;53.562;9.940;2023-03-23T05:13:23;10.07;;;8.10;;
54983;SDS011;40884;53.562;9.940;2023-03-23T05:14:26;9.63;;;8.50;;
54983;SDS011;40884;53.562;9.940;2023-03-23T05:15:35;7.73;;;7.03;;
54983;SDS011;40884;53.562;9.940;2023-03-23T05:16:37;8.87;;;7.97;;
54983;SDS011;40884;53.562;9.940;2023-03-23T05:17:37;10.63;;;7.57;;
54983;SDS011;40884;53.562;9.940;2023-03-23T05:18:45;8.93;;;8.03;;
54983;SDS011;40884;53.562;9.940;2023-03-23T05:19:46;6.30;;;5.70;;
54983;SDS011;40884;53.562;9.940;2023-03-23T05:21:02;6.83;;;6.20;;
54983;SDS011;40884;53.562;9.940;2023-03-23T05:22:06;8.83;;;7.63;;
54983;SDS011;40884;53.562;9.940;2023-03-23T05:24:36;9.60;;;8.60;;
54983;SDS011;40884;53.562;9.940;2023-03-23T05:25:38;9.33;;;8.10;;
54983;SDS011;40884;53.562;9.940;2023-03-23T05:26:42;8.27;;;7.27;;
54983;SDS011;40884;53.562;9.940;2023-03-23T05:27:51;7.63;;;6.50;;
54983;SDS011;40884;53.562;9.940;2023-03-23T05:28:56;9.03;;;6.80;;
54983;SDS011;40884;53.562;9.940;2023-03-23T05:29:58;7.43;;;6.43;;
54983;SDS011;40884;53.562;9.940;2023-03-23T05:30:58;6.73;;;6.10;;
54983;SDS011;40884;53.562;9.940;2023-03-23T05:32:03;7.67;;;6.50;;
54983;SDS011;40884;53.562;9.940;2023-03-23T05:33:06;6.83;;;6.23;;
54983;SDS011;40884;53.562;9.940;2023-03-23T05:34:19;8.00;;;6.87;;
54983;SDS011;40884;53.562;9.940;2023-03-23T05:35:26;7.93;;;6.40;;
54983;SDS011;40884;53.562;9.940;2023-03-23T05:36:27;7.83;;;6.53;;
54983;SDS011;40884;53.562;9.940;2023-03-23T05:37:40;7.00;;;6.37;;
54983;SDS011;40884;53.562;9.940;2023-03-23T05:38:42;9.33;;;7.30;;
54983;SDS011;40884;53.562;9.940;2023-03-23T05:39:44;7.13;;;5.60;;
54983;SDS011;40884;53.562;9.940;2023-03-23T05:41:06;5.97;;;5.20;;
54983;SDS011;40884;53.562;9.940;2023-03-23T05:42:14;8.67;;;7.77;;
54983;SDS011;40884;53.562;9.940;2023-03-23T05:43:30;7.57;;;6.80;;
54983;SDS011;40884;53.562;9.940;2023-03-23T05:44:40;6.93;;;6.03;;
54983;SDS011;40884;53.562;9.940;2023-03-23T05:45:40;7.13;;;5.70;;
54983;SDS011;40884;53.562;9.940;2023-03-23T05:46:41;7.77;;;6.70;;
54983;SDS011;40884;53.562;9.940;2023-03-23T05:47:41;6.90;;;5.87;;
54983;SDS011;40884;53.562;9.940;2023-03-23T05:48:46;7.37;;;6.00;;
54983;SDS011;40884;53.562;9.940;2023-03-23T05:49:50;7.23;;;6.53;;
54983;SDS011;40884;53.562;9.940;2023-03-23T05:50:52;7.20;;;5.90;;
54983;SDS011;40884;53.562;9.940;2023-03-23T05:51:56;7.93;;;6.60;;
54983;SDS011;40884;53.562;9.940;2023-03-23T05:52:56;6.67;;;5.70;;
54983;SDS011;40884;53.562;9.940;2023-03-23T05:53:57;7.37;;;5.87;;
54983;SDS011;40884;53.562;9.940;2023-03-23T05:54:57;8.07;;;6.63;;
54983;SDS011;40884;53.562;9.940;2023-03-23T05:55:59;7.23;;;6.27;;
54983;SDS011;40884;53.562;9.940;2023-03-23T05:57:15;6.27;;;5.67;;
54983;SDS011;40884;53.562;9.940;2023-03-23T05:58:21;5.40;;;4.90;;
54983;SDS011;40884;53.562;9.940;2023-03-23T05:59:21;10.07;;;6.87;;
54983;SDS011;40884;53.562;9.940;2023-03-23T06:00:25;6.60;;;5.90;;
54983;SDS011;40884;53.562;9.940;2023-03-23T06:01:34;7.67;;;5.97;;
54983;SDS011;40884;53.562;9.940;2023-03-23T06:02:34;7.13;;;5.67;;
54983;SDS011;40884;53.562;9.940;2023-03-23T06:03:34;6.87;;;6.07;;
54983;SDS011;40884;53.562;9.940;2023-03-23T06:04:40;7.07;;;6.37;;
54983;SDS011;40884;53.562;9.940;2023-03-23T06:05:54;6.83;;;4.90;;
54983;SDS011;40884;53.562;9.940;2023-03-23T06:07:02;5.47;;;4.40;;
54983;SDS011;40884;53.562;9.940;2023-03-23T06:08:03;7.17;;;5.70;;
54983;SDS011;40884;53.562;9.940;2023-03-23T06:09:03;8.33;;;6.20;;
54983;SDS011;40884;53.562;9.940;2023-03-23T06:10:38;7.97;;;7.17;;
54983;SDS011;40884;53.562;9.940;2023-03-23T06:11:38;7.13;;;5.87;;
54983;SDS011;40884;53.562;9.940;2023-03-23T06:12:57;10.33;;;6.33;;
54983;SDS011;40884;53.562;9.940;2023-03-23T06:14:04;6.93;;;5.67;;
54983;SDS011;40884;53.562;9.940;2023-03-23T06:15:05;6.73;;;6.03;;
54983;SDS011;40884;53.562;9.940;2023-03-23T06:16:25;6.97;;;6.20;;
54983;SDS011;40884;53.562;9.940;2023-03-23T06:17:31;7.00;;;5.37;;
54983;SDS011;40884;53.562;9.940;2023-03-23T06:18:31;7.90;;;6.00;;
54983;SDS011;40884;53.562;9.940;2023-03-23T06:19:43;9.20;;;5.80;;
54983;SDS011;40884;53.562;9.940;2023-03-23T06:20:47;7.00;;;5.30;;
54983;SDS011;40884;53.562;9.940;2023-03-23T06:21:56;7.80;;;6.00;;
54983;SDS011;40884;53.562;9.940;2023-03-23T06:23:15;7.10;;;5.60;;
54983;SDS011;40884;53.562;9.940;2023-03-23T06:24:16;6.97;;;5.70;;
54983;SDS011;40884;53.562;9.940;2023-03-23T06:25:17;5.70;;;5.07;;
54983;SDS011;40884;53.562;9.940;2023-03-23T06:26:18;6.33;;;4.90;;
54983;SDS011;40884;53.562;9.940;2023-03-23T06:27:21;6.87;;;5.00;;
54983;SDS011;40884;53.562;9.940;2023-03-23T06:28:22;6.47;;;5.47;;
54983;SDS011;40884;53.562;9.940;2023-03-23T06:29:23;5.63;;;5.03;;
54983;SDS011;40884;53.562;9.940;2023-03-23T06:30:28;5.30;;;4.80;;
54983;SDS011;40884;53.562;9.940;2023-03-23T06:31:28;8.73;;;5.80;;
54983;SDS011;40884;53.562;9.940;2023-03-23T06:32:29;6.53;;;5.47;;
54983;SDS011;40884;53.562;9.940;2023-03-23T06:33:30;6.50;;;5.47;;
54983;SDS011;40884;53.562;9.940;2023-03-23T06:34:56;6.33;;;5.20;;
54983;SDS011;40884;53.562;9.940;2023-03-23T06:36:15;6.47;;;5.40;;
54983;SDS011;40884;53.562;9.940;2023-03-23T06:37:24;7.17;;;5.50;;
54983;SDS011;40884;53.562;9.940;2023-03-23T06:38:46;5.70;;;4.63;;